Romulus, New York
Current Conditions -  °F | °C
As of 3:53 PM on Saturday 25 Oct 2014 (Local Time) from KPEO Reporting Station
Broken Clouds Broken Clouds  
Wind Chill: 66°   Ceiling: 6000
Heat Index: 66°   Visibility: 10mi
Dew Point: 43°   Wind: 14mph
Humidity: 43%   Direction: 230°SW
Pressure: 29.6"   Gusts: 22mph
Location:  42.75°N, 76.83°W
Report Text: KPEO 251953Z AUTO 23012G19KT 10SM BKN060 BKN085 19/06 A2960 RMK AO2 SLP021 T01890061
Loading
Personal Weather Stations






























Interactive Weather Map
Tropical Storm Tracking
New forecast layout! Learn more

10-Day Weather Forecast

Advertisements
Track Severe Weather on mobile